sensor_id;sensor_type;location;lat;lon;timestamp;P1;durP1;ratioP1;P2;durP2;ratioP2
30307;SDS011;17114;52.314;8.910;2023-08-30T00:01:13;4.57;;;3.85;;
30307;SDS011;17114;52.314;8.910;2023-08-30T00:03:40;4.40;;;3.60;;
30307;SDS011;17114;52.314;8.910;2023-08-30T00:06:07;5.95;;;4.05;;
30307;SDS011;17114;52.314;8.910;2023-08-30T00:08:35;5.60;;;3.90;;
30307;SDS011;17114;52.314;8.910;2023-08-30T00:11:02;5.53;;;4.47;;
30307;SDS011;17114;52.314;8.910;2023-08-30T00:13:30;6.28;;;4.95;;
30307;SDS011;17114;52.314;8.910;2023-08-30T00:15:59;8.75;;;4.68;;
30307;SDS011;17114;52.314;8.910;2023-08-30T00:18:28;4.70;;;4.20;;
30307;SDS011;17114;52.314;8.910;2023-08-30T00:20:55;6.90;;;4.72;;
30307;SDS011;17114;52.314;8.910;2023-08-30T00:23:23;5.47;;;4.65;;
30307;SDS011;17114;52.314;8.910;2023-08-30T00:25:50;5.60;;;4.35;;
30307;SDS011;17114;52.314;8.910;2023-08-30T00:28:17;7.70;;;5.10;;
30307;SDS011;17114;52.314;8.910;2023-08-30T00:30:44;7.68;;;6.40;;
30307;SDS011;17114;52.314;8.910;2023-08-30T00:33:11;6.00;;;5.25;;
30307;SDS011;17114;52.314;8.910;2023-08-30T00:35:37;10.05;;;8.55;;
30307;SDS011;17114;52.314;8.910;2023-08-30T00:38:04;9.15;;;8.07;;
30307;SDS011;17114;52.314;8.910;2023-08-30T00:40:37;10.35;;;8.57;;
30307;SDS011;17114;52.314;8.910;2023-08-30T00:43:07;9.48;;;8.43;;
30307;SDS011;17114;52.314;8.910;2023-08-30T00:45:34;12.07;;;8.15;;
30307;SDS011;17114;52.314;8.910;2023-08-30T00:48:04;10.43;;;8.77;;
30307;SDS011;17114;52.314;8.910;2023-08-30T00:50:32;14.07;;;10.70;;
30307;SDS011;17114;52.314;8.910;2023-08-30T00:53:00;11.93;;;9.18;;
30307;SDS011;17114;52.314;8.910;2023-08-30T00:55:34;9.98;;;8.45;;
30307;SDS011;17114;52.314;8.910;2023-08-30T00:58:01;11.55;;;8.95;;
30307;SDS011;17114;52.314;8.910;2023-08-30T01:00:29;11.18;;;7.60;;
30307;SDS011;17114;52.314;8.910;2023-08-30T01:02:57;11.00;;;8.52;;
30307;SDS011;17114;52.314;8.910;2023-08-30T01:05:25;11.48;;;9.43;;
30307;SDS011;17114;52.314;8.910;2023-08-30T01:07:52;13.80;;;10.82;;
30307;SDS011;17114;52.314;8.910;2023-08-30T01:10:19;13.40;;;9.07;;
30307;SDS011;17114;52.314;8.910;2023-08-30T01:15:23;10.57;;;8.63;;
30307;SDS011;17114;52.314;8.910;2023-08-30T01:17:51;10.02;;;8.85;;
30307;SDS011;17114;52.314;8.910;2023-08-30T01:20:19;10.65;;;8.18;;
30307;SDS011;17114;52.314;8.910;2023-08-30T01:25:47;13.43;;;9.50;;
30307;SDS011;17114;52.314;8.910;2023-08-30T01:30:49;12.77;;;10.30;;
30307;SDS011;17114;52.314;8.910;2023-08-30T01:33:21;9.90;;;8.88;;
30307;SDS011;17114;52.314;8.910;2023-08-30T01:35:48;13.00;;;8.98;;
30307;SDS011;17114;52.314;8.910;2023-08-30T01:38:16;12.95;;;10.00;;
30307;SDS011;17114;52.314;8.910;2023-08-30T01:40:43;13.70;;;10.40;;
30307;SDS011;17114;52.314;8.910;2023-08-30T01:43:11;13.32;;;9.88;;
30307;SDS011;17114;52.314;8.910;2023-08-30T01:45:41;16.70;;;10.30;;
30307;SDS011;17114;52.314;8.910;2023-08-30T01:48:13;14.55;;;10.13;;
30307;SDS011;17114;52.314;8.910;2023-08-30T01:50:43;13.30;;;10.73;;
30307;SDS011;17114;52.314;8.910;2023-08-30T01:53:11;14.27;;;10.90;;
30307;SDS011;17114;52.314;8.910;2023-08-30T01:55:38;15.52;;;11.70;;
30307;SDS011;17114;52.314;8.910;2023-08-30T01:58:06;16.85;;;11.32;;
30307;SDS011;17114;52.314;8.910;2023-08-30T02:00:35;15.02;;;11.27;;
30307;SDS011;17114;52.314;8.910;2023-08-30T02:03:12;14.30;;;12.02;;
30307;SDS011;17114;52.314;8.910;2023-08-30T02:05:43;17.63;;;12.45;;
30307;SDS011;17114;52.314;8.910;2023-08-30T02:08:16;13.82;;;11.63;;
30307;SDS011;17114;52.314;8.910;2023-08-30T02:10:55;16.00;;;11.40;;
30307;SDS011;17114;52.314;8.910;2023-08-30T02:13:27;15.20;;;11.40;;
30307;SDS011;17114;52.314;8.910;2023-08-30T02:15:56;16.50;;;12.63;;
30307;SDS011;17114;52.314;8.910;2023-08-30T02:18:25;16.80;;;11.20;;
30307;SDS011;17114;52.314;8.910;2023-08-30T02:20:53;15.48;;;11.38;;
30307;SDS011;17114;52.314;8.910;2023-08-30T02:23:25;13.15;;;11.30;;
30307;SDS011;17114;52.314;8.910;2023-08-30T02:25:53;18.25;;;11.73;;
30307;SDS011;17114;52.314;8.910;2023-08-30T02:28:21;13.98;;;11.25;;
30307;SDS011;17114;52.314;8.910;2023-08-30T02:30:49;17.58;;;11.35;;
30307;SDS011;17114;52.314;8.910;2023-08-30T02:33:19;13.98;;;11.68;;
30307;SDS011;17114;52.314;8.910;2023-08-30T02:35:46;14.10;;;11.10;;
30307;SDS011;17114;52.314;8.910;2023-08-30T02:38:13;13.93;;;10.85;;
30307;SDS011;17114;52.314;8.910;2023-08-30T02:40:40;13.88;;;10.60;;
30307;SDS011;17114;52.314;8.910;2023-08-30T02:43:06;12.95;;;10.43;;
30307;SDS011;17114;52.314;8.910;2023-08-30T02:45:33;16.60;;;11.02;;
30307;SDS011;17114;52.314;8.910;2023-08-30T02:48:01;12.88;;;10.63;;
30307;SDS011;17114;52.314;8.910;2023-08-30T02:50:28;13.18;;;10.52;;
30307;SDS011;17114;52.314;8.910;2023-08-30T02:52:54;13.38;;;10.88;;
30307;SDS011;17114;52.314;8.910;2023-08-30T02:55:21;13.55;;;11.02;;
30307;SDS011;17114;52.314;8.910;2023-08-30T02:57:48;14.45;;;10.55;;
30307;SDS011;17114;52.314;8.910;2023-08-30T03:00:15;12.70;;;10.70;;
30307;SDS011;17114;52.314;8.910;2023-08-30T03:02:42;11.57;;;9.43;;
30307;SDS011;17114;52.314;8.910;2023-08-30T03:05:09;11.75;;;10.27;;
30307;SDS011;17114;52.314;8.910;2023-08-30T03:07:38;12.93;;;9.40;;
30307;SDS011;17114;52.314;8.910;2023-08-30T03:10:05;15.05;;;10.20;;
30307;SDS011;17114;52.314;8.910;2023-08-30T03:12:32;12.02;;;10.02;;
30307;SDS011;17114;52.314;8.910;2023-08-30T03:14:59;14.23;;;9.88;;
30307;SDS011;17114;52.314;8.910;2023-08-30T03:17:26;14.25;;;9.85;;
30307;SDS011;17114;52.314;8.910;2023-08-30T03:19:57;13.65;;;10.60;;
30307;SDS011;17114;52.314;8.910;2023-08-30T03:22:24;14.13;;;10.02;;
30307;SDS011;17114;52.314;8.910;2023-08-30T03:24:54;10.48;;;8.30;;
30307;SDS011;17114;52.314;8.910;2023-08-30T03:27:21;11.15;;;8.65;;
30307;SDS011;17114;52.314;8.910;2023-08-30T03:29:48;8.73;;;7.38;;
30307;SDS011;17114;52.314;8.910;2023-08-30T03:32:16;9.70;;;6.75;;
30307;SDS011;17114;52.314;8.910;2023-08-30T03:34:44;12.43;;;8.73;;
30307;SDS011;17114;52.314;8.910;2023-08-30T03:37:13;12.48;;;9.20;;
30307;SDS011;17114;52.314;8.910;2023-08-30T03:39:40;11.90;;;9.50;;
30307;SDS011;17114;52.314;8.910;2023-08-30T03:42:07;8.27;;;6.93;;
30307;SDS011;17114;52.314;8.910;2023-08-30T03:44:34;11.05;;;7.78;;
30307;SDS011;17114;52.314;8.910;2023-08-30T03:47:04;11.70;;;8.98;;
30307;SDS011;17114;52.314;8.910;2023-08-30T03:49:31;13.63;;;10.95;;
30307;SDS011;17114;52.314;8.910;2023-08-30T03:51:58;12.27;;;9.35;;
30307;SDS011;17114;52.314;8.910;2023-08-30T03:54:25;15.80;;;11.68;;
30307;SDS011;17114;52.314;8.910;2023-08-30T03:56:52;18.90;;;13.82;;
30307;SDS011;17114;52.314;8.910;2023-08-30T03:59:19;18.83;;;13.43;;
30307;SDS011;17114;52.314;8.910;2023-08-30T04:01:46;16.13;;;12.55;;
30307;SDS011;17114;52.314;8.910;2023-08-30T04:04:13;17.77;;;13.32;;
30307;SDS011;17114;52.314;8.910;2023-08-30T04:06:40;14.25;;;11.20;;
30307;SDS011;17114;52.314;8.910;2023-08-30T04:09:07;10.20;;;8.57;;
30307;SDS011;17114;52.314;8.910;2023-08-30T04:11:34;10.15;;;7.82;;
30307;SDS011;17114;52.314;8.910;2023-08-30T04:14:01;15.48;;;11.15;;
30307;SDS011;17114;52.314;8.910;2023-08-30T04:16:28;17.38;;;12.32;;
30307;SDS011;17114;52.314;8.910;2023-08-30T04:18:55;15.63;;;12.30;;
30307;SDS011;17114;52.314;8.910;2023-08-30T04:21:23;18.40;;;13.32;;
30307;SDS011;17114;52.314;8.910;2023-08-30T04:23:50;21.08;;;13.27;;
30307;SDS011;17114;52.314;8.910;2023-08-30T04:26:17;16.42;;;13.35;;
30307;SDS011;17114;52.314;8.910;2023-08-30T04:28:43;17.90;;;13.23;;
30307;SDS011;17114;52.314;8.910;2023-08-30T04:31:11;20.05;;;13.98;;
30307;SDS011;17114;52.314;8.910;2023-08-30T04:33:38;18.92;;;14.15;;
30307;SDS011;17114;52.314;8.910;2023-08-30T04:36:05;17.88;;;13.30;;
30307;SDS011;17114;52.314;8.910;2023-08-30T04:38:32;20.88;;;14.98;;
30307;SDS011;17114;52.314;8.910;2023-08-30T04:41:04;18.08;;;13.70;;
30307;SDS011;17114;52.314;8.910;2023-08-30T04:43:31;21.58;;;15.27;;
30307;SDS011;17114;52.314;8.910;2023-08-30T04:45:58;18.52;;;14.70;;
30307;SDS011;17114;52.314;8.910;2023-08-30T04:48:25;18.83;;;14.70;;
30307;SDS011;17114;52.314;8.910;2023-08-30T04:51:01;22.40;;;15.00;;
30307;SDS011;17114;52.314;8.910;2023-08-30T04:53:29;25.10;;;15.20;;
30307;SDS011;17114;52.314;8.910;2023-08-30T04:55:56;21.42;;;15.35;;
30307;SDS011;17114;52.314;8.910;2023-08-30T04:58:23;20.52;;;15.02;;
30307;SDS011;17114;52.314;8.910;2023-08-30T05:00:50;22.17;;;14.98;;
30307;SDS011;17114;52.314;8.910;2023-08-30T05:03:17;22.38;;;15.18;;
30307;SDS011;17114;52.314;8.910;2023-08-30T05:05:45;20.65;;;14.48;;
30307;SDS011;17114;52.314;8.910;2023-08-30T05:08:12;20.65;;;14.18;;
30307;SDS011;17114;52.314;8.910;2023-08-30T05:10:39;18.98;;;13.85;;
30307;SDS011;17114;52.314;8.910;2023-08-30T05:13:06;18.10;;;14.13;;
30307;SDS011;17114;52.314;8.910;2023-08-30T05:15:33;16.42;;;13.35;;
30307;SDS011;17114;52.314;8.910;2023-08-30T05:18:00;19.42;;;13.73;;
30307;SDS011;17114;52.314;8.910;2023-08-30T05:20:28;18.02;;;13.13;;
30307;SDS011;17114;52.314;8.910;2023-08-30T05:22:54;20.40;;;15.15;;
30307;SDS011;17114;52.314;8.910;2023-08-30T05:25:22;19.00;;;15.05;;
30307;SDS011;17114;52.314;8.910;2023-08-30T05:27:49;18.92;;;14.55;;
30307;SDS011;17114;52.314;8.910;2023-08-30T05:30:16;20.85;;;14.68;;
30307;SDS011;17114;52.314;8.910;2023-08-30T05:32:44;20.48;;;15.00;;
30307;SDS011;17114;52.314;8.910;2023-08-30T05:35:11;17.25;;;14.68;;
30307;SDS011;17114;52.314;8.910;2023-08-30T05:37:37;22.45;;;15.82;;
30307;SDS011;17114;52.314;8.910;2023-08-30T05:40:04;20.75;;;15.52;;
30307;SDS011;17114;52.314;8.910;2023-08-30T05:42:32;22.30;;;15.52;;
30307;SDS011;17114;52.314;8.910;2023-08-30T05:44:59;20.27;;;14.98;;
30307;SDS011;17114;52.314;8.910;2023-08-30T05:47:25;22.02;;;15.40;;
30307;SDS011;17114;52.314;8.910;2023-08-30T05:49:52;23.40;;;16.08;;
30307;SDS011;17114;52.314;8.910;2023-08-30T05:52:19;20.42;;;14.02;;
30307;SDS011;17114;52.314;8.910;2023-08-30T05:54:46;20.67;;;16.05;;
30307;SDS011;17114;52.314;8.910;2023-08-30T05:57:13;22.05;;;16.25;;
30307;SDS011;17114;52.314;8.910;2023-08-30T05:59:40;22.38;;;15.75;;
30307;SDS011;17114;52.314;8.910;2023-08-30T06:02:06;19.48;;;15.15;;
30307;SDS011;17114;52.314;8.910;2023-08-30T06:04:33;27.52;;;17.13;;
30307;SDS011;17114;52.314;8.910;2023-08-30T06:07:00;24.88;;;16.35;;
30307;SDS011;17114;52.314;8.910;2023-08-30T06:09:27;23.52;;;16.00;;
30307;SDS011;17114;52.314;8.910;2023-08-30T06:11:54;23.48;;;16.30;;
30307;SDS011;17114;52.314;8.910;2023-08-30T06:14:21;24.52;;;15.63;;
30307;SDS011;17114;52.314;8.910;2023-08-30T06:16:48;23.77;;;17.35;;
30307;SDS011;17114;52.314;8.910;2023-08-30T06:19:15;24.55;;;16.77;;
30307;SDS011;17114;52.314;8.910;2023-08-30T06:21:42;26.17;;;17.02;;
30307;SDS011;17114;52.314;8.910;2023-08-30T06:24:08;25.25;;;17.08;;
30307;SDS011;17114;52.314;8.910;2023-08-30T06:26:35;20.65;;;16.13;;
30307;SDS011;17114;52.314;8.910;2023-08-30T06:29:02;21.08;;;15.63;;
30307;SDS011;17114;52.314;8.910;2023-08-30T06:31:30;18.27;;;14.40;;
30307;SDS011;17114;52.314;8.910;2023-08-30T06:33:59;20.25;;;14.45;;
30307;SDS011;17114;52.314;8.910;2023-08-30T06:36:26;18.77;;;13.57;;
30307;SDS011;17114;52.314;8.910;2023-08-30T06:38:53;17.83;;;13.10;;
30307;SDS011;17114;52.314;8.910;2023-08-30T06:41:20;17.58;;;12.63;;
30307;SDS011;17114;52.314;8.910;2023-08-30T06:43:47;19.15;;;12.77;;
30307;SDS011;17114;52.314;8.910;2023-08-30T06:46:14;15.80;;;12.13;;
30307;SDS011;17114;52.314;8.910;2023-08-30T06:48:40;17.48;;;13.40;;
30307;SDS011;17114;52.314;8.910;2023-08-30T06:51:07;17.90;;;12.40;;
30307;SDS011;17114;52.314;8.910;2023-08-30T06:53:34;14.65;;;12.90;;
30307;SDS011;17114;52.314;8.910;2023-08-30T06:56:01;15.55;;;12.18;;
30307;SDS011;17114;52.314;8.910;2023-08-30T06:58:28;16.98;;;12.25;;
30307;SDS011;17114;52.314;8.910;2023-08-30T07:00:59;17.90;;;12.50;;
30307;SDS011;17114;52.314;8.910;2023-08-30T07:03:26;16.60;;;12.63;;
30307;SDS011;17114;52.314;8.910;2023-08-30T07:05:53;15.52;;;11.73;;
30307;SDS011;17114;52.314;8.910;2023-08-30T07:08:20;18.13;;;11.23;;
30307;SDS011;17114;52.314;8.910;2023-08-30T07:10:47;14.68;;;11.15;;
30307;SDS011;17114;52.314;8.910;2023-08-30T07:13:14;17.00;;;12.23;;
30307;SDS011;17114;52.314;8.910;2023-08-30T07:15:41;16.45;;;11.77;;
30307;SDS011;17114;52.314;8.910;2023-08-30T07:18:09;17.17;;;11.90;;
30307;SDS011;17114;52.314;8.910;2023-08-30T07:20:38;18.00;;;12.32;;
30307;SDS011;17114;52.314;8.910;2023-08-30T07:23:05;15.65;;;11.90;;
30307;SDS011;17114;52.314;8.910;2023-08-30T07:25:36;16.20;;;10.98;;
30307;SDS011;17114;52.314;8.910;2023-08-30T07:28:07;15.52;;;10.85;;
30307;SDS011;17114;52.314;8.910;2023-08-30T07:30:35;15.50;;;10.75;;
30307;SDS011;17114;52.314;8.910;2023-08-30T07:33:04;15.65;;;10.23;;
30307;SDS011;17114;52.314;8.910;2023-08-30T07:35:31;14.50;;;10.75;;
30307;SDS011;17114;52.314;8.910;2023-08-30T07:37:59;13.80;;;10.95;;
30307;SDS011;17114;52.314;8.910;2023-08-30T07:40:26;16.13;;;11.02;;
30307;SDS011;17114;52.314;8.910;2023-08-30T07:42:54;13.55;;;9.55;;
30307;SDS011;17114;52.314;8.910;2023-08-30T07:45:25;11.75;;;9.75;;
30307;SDS011;17114;52.314;8.910;2023-08-30T07:47:52;13.02;;;10.75;;
30307;SDS011;17114;52.314;8.910;2023-08-30T07:50:18;13.35;;;10.75;;
30307;SDS011;17114;52.314;8.910;2023-08-30T07:52:45;16.17;;;11.13;;
30307;SDS011;17114;52.314;8.910;2023-08-30T07:55:12;14.10;;;10.10;;
30307;SDS011;17114;52.314;8.910;2023-08-30T07:57:40;17.48;;;10.25;;
30307;SDS011;17114;52.314;8.910;2023-08-30T08:00:07;14.90;;;11.32;;
30307;SDS011;17114;52.314;8.910;2023-08-30T08:02:34;15.38;;;11.70;;
30307;SDS011;17114;52.314;8.910;2023-08-30T08:05:01;15.10;;;11.63;;
30307;SDS011;17114;52.314;8.910;2023-08-30T08:07:28;14.52;;;11.20;;
30307;SDS011;17114;52.314;8.910;2023-08-30T08:09:56;14.93;;;11.43;;
30307;SDS011;17114;52.314;8.910;2023-08-30T08:12:23;14.20;;;10.95;;
30307;SDS011;17114;52.314;8.910;2023-08-30T08:14:50;18.13;;;11.73;;
30307;SDS011;17114;52.314;8.910;2023-08-30T08:17:18;14.40;;;10.15;;
30307;SDS011;17114;52.314;8.910;2023-08-30T08:19:44;13.73;;;10.60;;
30307;SDS011;17114;52.314;8.910;2023-08-30T08:22:11;18.35;;;10.98;;
30307;SDS011;17114;52.314;8.910;2023-08-30T08:24:38;18.10;;;10.23;;
30307;SDS011;17114;52.314;8.910;2023-08-30T08:27:05;14.23;;;8.82;;
30307;SDS011;17114;52.314;8.910;2023-08-30T08:29:32;13.80;;;10.15;;
30307;SDS011;17114;52.314;8.910;2023-08-30T08:31:59;12.95;;;9.95;;
30307;SDS011;17114;52.314;8.910;2023-08-30T08:34:26;20.88;;;13.88;;
30307;SDS011;17114;52.314;8.910;2023-08-30T08:36:53;22.50;;;14.63;;
30307;SDS011;17114;52.314;8.910;2023-08-30T08:39:20;23.33;;;16.02;;
30307;SDS011;17114;52.314;8.910;2023-08-30T08:41:47;28.27;;;15.10;;
30307;SDS011;17114;52.314;8.910;2023-08-30T08:44:14;20.20;;;14.95;;
30307;SDS011;17114;52.314;8.910;2023-08-30T08:46:42;21.92;;;14.48;;
30307;SDS011;17114;52.314;8.910;2023-08-30T08:49:11;21.77;;;15.57;;
30307;SDS011;17114;52.314;8.910;2023-08-30T08:51:43;23.38;;;16.70;;
30307;SDS011;17114;52.314;8.910;2023-08-30T08:54:11;21.20;;;15.85;;
30307;SDS011;17114;52.314;8.910;2023-08-30T08:56:39;20.60;;;15.27;;
30307;SDS011;17114;52.314;8.910;2023-08-30T08:59:06;22.98;;;15.80;;
30307;SDS011;17114;52.314;8.910;2023-08-30T09:01:35;24.00;;;15.63;;
30307;SDS011;17114;52.314;8.910;2023-08-30T09:04:06;19.65;;;15.60;;
30307;SDS011;17114;52.314;8.910;2023-08-30T09:06:35;20.52;;;15.20;;
30307;SDS011;17114;52.314;8.910;2023-08-30T09:09:03;22.45;;;15.00;;
30307;SDS011;17114;52.314;8.910;2023-08-30T09:11:31;20.55;;;15.57;;
30307;SDS011;17114;52.314;8.910;2023-08-30T09:14:01;22.30;;;15.70;;
30307;SDS011;17114;52.314;8.910;2023-08-30T09:16:28;20.17;;;14.10;;
30307;SDS011;17114;52.314;8.910;2023-08-30T09:18:59;16.77;;;12.55;;
30307;SDS011;17114;52.314;8.910;2023-08-30T09:21:36;16.75;;;12.77;;
30307;SDS011;17114;52.314;8.910;2023-08-30T09:24:04;17.55;;;13.55;;
30307;SDS011;17114;52.314;8.910;2023-08-30T09:26:32;21.70;;;14.68;;
30307;SDS011;17114;52.314;8.910;2023-08-30T09:29:05;19.10;;;14.10;;
30307;SDS011;17114;52.314;8.910;2023-08-30T09:31:36;18.52;;;13.50;;
30307;SDS011;17114;52.314;8.910;2023-08-30T09:34:04;22.52;;;14.85;;
30307;SDS011;17114;52.314;8.910;2023-08-30T09:36:36;23.13;;;15.40;;
30307;SDS011;17114;52.314;8.910;2023-08-30T09:41:42;18.15;;;13.90;;
30307;SDS011;17114;52.314;8.910;2023-08-30T09:44:13;19.88;;;13.95;;
30307;SDS011;17114;52.314;8.910;2023-08-30T09:49:18;19.63;;;13.45;;
30307;SDS011;17114;52.314;8.910;2023-08-30T09:51:53;17.25;;;13.73;;
30307;SDS011;17114;52.314;8.910;2023-08-30T09:54:22;18.80;;;13.65;;
30307;SDS011;17114;52.314;8.910;2023-08-30T09:57:05;18.75;;;12.68;;
30307;SDS011;17114;52.314;8.910;2023-08-30T09:59:32;16.05;;;11.82;;
30307;SDS011;17114;52.314;8.910;2023-08-30T10:02:00;16.95;;;11.13;;
30307;SDS011;17114;52.314;8.910;2023-08-30T10:04:27;12.63;;;9.50;;
30307;SDS011;17114;52.314;8.910;2023-08-30T10:06:56;14.20;;;8.90;;
30307;SDS011;17114;52.314;8.910;2023-08-30T10:09:24;11.40;;;8.02;;
30307;SDS011;17114;52.314;8.910;2023-08-30T10:11:51;12.55;;;7.88;;
30307;SDS011;17114;52.314;8.910;2023-08-30T10:14:19;14.25;;;9.80;;
30307;SDS011;17114;52.314;8.910;2023-08-30T10:16:47;12.55;;;9.05;;
30307;SDS011;17114;52.314;8.910;2023-08-30T10:19:15;12.27;;;8.63;;
30307;SDS011;17114;52.314;8.910;2023-08-30T10:22:01;11.73;;;9.18;;
30307;SDS011;17114;52.314;8.910;2023-08-30T10:24:36;12.15;;;8.80;;
30307;SDS011;17114;52.314;8.910;2023-08-30T10:27:28;11.05;;;7.57;;
30307;SDS011;17114;52.314;8.910;2023-08-30T10:29:58;12.43;;;7.18;;
30307;SDS011;17114;52.314;8.910;2023-08-30T10:32:27;11.20;;;6.95;;
30307;SDS011;17114;52.314;8.910;2023-08-30T10:34:54;10.27;;;6.88;;
30307;SDS011;17114;52.314;8.910;2023-08-30T10:37:26;12.93;;;6.97;;
30307;SDS011;17114;52.314;8.910;2023-08-30T10:39:58;10.00;;;6.13;;
30307;SDS011;17114;52.314;8.910;2023-08-30T10:42:26;9.23;;;6.15;;
30307;SDS011;17114;52.314;8.910;2023-08-30T10:47:30;16.33;;;7.95;;
30307;SDS011;17114;52.314;8.910;2023-08-30T10:49:59;13.60;;;7.32;;
30307;SDS011;17114;52.314;8.910;2023-08-30T10:52:30;12.75;;;8.80;;
30307;SDS011;17114;52.314;8.910;2023-08-30T10:55:13;12.55;;;8.10;;
30307;SDS011;17114;52.314;8.910;2023-08-30T10:57:42;12.25;;;7.78;;
30307;SDS011;17114;52.314;8.910;2023-08-30T11:02:47;9.60;;;6.50;;
30307;SDS011;17114;52.314;8.910;2023-08-30T11:05:16;10.85;;;6.07;;
30307;SDS011;17114;52.314;8.910;2023-08-30T11:07:44;12.68;;;6.15;;
30307;SDS011;17114;52.314;8.910;2023-08-30T11:10:13;8.10;;;5.75;;
30307;SDS011;17114;52.314;8.910;2023-08-30T11:12:41;10.90;;;5.65;;
30307;SDS011;17114;52.314;8.910;2023-08-30T11:15:09;14.00;;;6.60;;
30307;SDS011;17114;52.314;8.910;2023-08-30T11:17:37;11.82;;;5.80;;
30307;SDS011;17114;52.314;8.910;2023-08-30T11:20:07;9.93;;;5.75;;
30307;SDS011;17114;52.314;8.910;2023-08-30T11:22:39;9.00;;;6.45;;
30307;SDS011;17114;52.314;8.910;2023-08-30T11:25:08;9.68;;;6.15;;
30307;SDS011;17114;52.314;8.910;2023-08-30T11:27:37;8.57;;;5.70;;
30307;SDS011;17114;52.314;8.910;2023-08-30T11:30:05;8.00;;;5.47;;
30307;SDS011;17114;52.314;8.910;2023-08-30T11:32:38;8.52;;;5.75;;
30307;SDS011;17114;52.314;8.910;2023-08-30T11:35:06;7.40;;;4.82;;
30307;SDS011;17114;52.314;8.910;2023-08-30T11:37:34;7.38;;;5.18;;
30307;SDS011;17114;52.314;8.910;2023-08-30T11:40:02;10.38;;;5.22;;
30307;SDS011;17114;52.314;8.910;2023-08-30T11:42:30;8.30;;;5.53;;
30307;SDS011;17114;52.314;8.910;2023-08-30T11:44:58;9.88;;;5.65;;
30307;SDS011;17114;52.314;8.910;2023-08-30T11:47:26;7.55;;;5.13;;
30307;SDS011;17114;52.314;8.910;2023-08-30T11:49:54;9.85;;;5.35;;
30307;SDS011;17114;52.314;8.910;2023-08-30T11:52:22;7.13;;;5.18;;
30307;SDS011;17114;52.314;8.910;2023-08-30T11:54:50;7.38;;;4.85;;
30307;SDS011;17114;52.314;8.910;2023-08-30T11:57:19;9.98;;;5.20;;
30307;SDS011;17114;52.314;8.910;2023-08-30T11:59:47;11.10;;;4.90;;
30307;SDS011;17114;52.314;8.910;2023-08-30T12:02:15;10.05;;;4.97;;
30307;SDS011;17114;52.314;8.910;2023-08-30T12:04:44;6.90;;;4.32;;
30307;SDS011;17114;52.314;8.910;2023-08-30T12:07:22;14.52;;;4.70;;
30307;SDS011;17114;52.314;8.910;2023-08-30T12:09:50;7.80;;;4.45;;
30307;SDS011;17114;52.314;8.910;2023-08-30T12:12:18;7.80;;;4.88;;
30307;SDS011;17114;52.314;8.910;2023-08-30T12:14:53;10.30;;;4.55;;
30307;SDS011;17114;52.314;8.910;2023-08-30T12:17:22;7.25;;;4.35;;
30307;SDS011;17114;52.314;8.910;2023-08-30T12:19:56;8.52;;;5.20;;
30307;SDS011;17114;52.314;8.910;2023-08-30T12:22:23;7.00;;;4.38;;
30307;SDS011;17114;52.314;8.910;2023-08-30T12:25:01;11.05;;;5.68;;
30307;SDS011;17114;52.314;8.910;2023-08-30T12:27:29;7.70;;;4.70;;
30307;SDS011;17114;52.314;8.910;2023-08-30T12:29:56;7.65;;;5.13;;
30307;SDS011;17114;52.314;8.910;2023-08-30T12:32:23;10.00;;;5.25;;
30307;SDS011;17114;52.314;8.910;2023-08-30T12:34:50;11.32;;;4.78;;
30307;SDS011;17114;52.314;8.910;2023-08-30T12:37:17;8.25;;;4.90;;
30307;SDS011;17114;52.314;8.910;2023-08-30T12:39:44;9.90;;;5.32;;
30307;SDS011;17114;52.314;8.910;2023-08-30T12:42:11;7.97;;;4.90;;
30307;SDS011;17114;52.314;8.910;2023-08-30T12:44:38;9.30;;;4.60;;
30307;SDS011;17114;52.314;8.910;2023-08-30T12:47:05;8.63;;;4.50;;
30307;SDS011;17114;52.314;8.910;2023-08-30T12:49:32;7.95;;;4.43;;
30307;SDS011;17114;52.314;8.910;2023-08-30T12:52:00;8.98;;;4.55;;
30307;SDS011;17114;52.314;8.910;2023-08-30T12:54:27;8.68;;;4.43;;
30307;SDS011;17114;52.314;8.910;2023-08-30T12:56:54;8.18;;;4.88;;
30307;SDS011;17114;52.314;8.910;2023-08-30T12:59:21;8.82;;;4.70;;
30307;SDS011;17114;52.314;8.910;2023-08-30T13:01:48;7.45;;;4.10;;
30307;SDS011;17114;52.314;8.910;2023-08-30T13:04:15;6.32;;;4.05;;
30307;SDS011;17114;52.314;8.910;2023-08-30T13:06:42;6.57;;;4.22;;
30307;SDS011;17114;52.314;8.910;2023-08-30T13:09:09;8.50;;;3.90;;
30307;SDS011;17114;52.314;8.910;2023-08-30T13:11:36;6.78;;;4.13;;
30307;SDS011;17114;52.314;8.910;2023-08-30T13:14:03;6.88;;;4.40;;
30307;SDS011;17114;52.314;8.910;2023-08-30T13:16:30;6.97;;;4.07;;
30307;SDS011;17114;52.314;8.910;2023-08-30T13:18:57;10.98;;;4.30;;
30307;SDS011;17114;52.314;8.910;2023-08-30T13:21:24;8.05;;;4.20;;
30307;SDS011;17114;52.314;8.910;2023-08-30T13:24:06;10.00;;;4.95;;
30307;SDS011;17114;52.314;8.910;2023-08-30T13:26:33;6.80;;;4.60;;
30307;SDS011;17114;52.314;8.910;2023-08-30T13:29:00;7.03;;;4.30;;
30307;SDS011;17114;52.314;8.910;2023-08-30T13:31:29;7.22;;;4.30;;
30307;SDS011;17114;52.314;8.910;2023-08-30T13:33:56;6.85;;;4.28;;
30307;SDS011;17114;52.314;8.910;2023-08-30T13:36:23;6.85;;;3.85;;
30307;SDS011;17114;52.314;8.910;2023-08-30T13:38:51;6.45;;;4.07;;
30307;SDS011;17114;52.314;8.910;2023-08-30T13:41:19;9.95;;;4.97;;
30307;SDS011;17114;52.314;8.910;2023-08-30T13:43:46;7.90;;;4.68;;
30307;SDS011;17114;52.314;8.910;2023-08-30T13:46:13;6.45;;;4.47;;
30307;SDS011;17114;52.314;8.910;2023-08-30T13:48:40;7.22;;;4.30;;
30307;SDS011;17114;52.314;8.910;2023-08-30T13:51:08;6.60;;;4.15;;
30307;SDS011;17114;52.314;8.910;2023-08-30T13:53:34;8.00;;;4.43;;
30307;SDS011;17114;52.314;8.910;2023-08-30T13:56:01;7.78;;;4.68;;
30307;SDS011;17114;52.314;8.910;2023-08-30T13:58:28;9.48;;;6.70;;
30307;SDS011;17114;52.314;8.910;2023-08-30T14:00:55;10.55;;;7.47;;
30307;SDS011;17114;52.314;8.910;2023-08-30T14:03:22;13.45;;;8.00;;
30307;SDS011;17114;52.314;8.910;2023-08-30T14:05:48;11.75;;;8.07;;
30307;SDS011;17114;52.314;8.910;2023-08-30T14:08:15;13.57;;;8.52;;
30307;SDS011;17114;52.314;8.910;2023-08-30T14:10:43;13.10;;;8.48;;
30307;SDS011;17114;52.314;8.910;2023-08-30T14:13:09;15.27;;;9.43;;
30307;SDS011;17114;52.314;8.910;2023-08-30T14:15:37;15.18;;;10.40;;
30307;SDS011;17114;52.314;8.910;2023-08-30T14:18:04;14.32;;;10.13;;
30307;SDS011;17114;52.314;8.910;2023-08-30T14:20:31;16.08;;;10.45;;
30307;SDS011;17114;52.314;8.910;2023-08-30T14:22:58;13.93;;;9.85;;
30307;SDS011;17114;52.314;8.910;2023-08-30T14:25:25;14.30;;;10.63;;
30307;SDS011;17114;52.314;8.910;2023-08-30T14:27:52;14.07;;;11.40;;
30307;SDS011;17114;52.314;8.910;2023-08-30T14:30:19;17.90;;;12.18;;
30307;SDS011;17114;52.314;8.910;2023-08-30T14:32:46;15.55;;;11.85;;
30307;SDS011;17114;52.314;8.910;2023-08-30T14:35:13;15.52;;;12.07;;
30307;SDS011;17114;52.314;8.910;2023-08-30T14:37:40;16.25;;;12.27;;
30307;SDS011;17114;52.314;8.910;2023-08-30T14:40:07;20.20;;;13.48;;
30307;SDS011;17114;52.314;8.910;2023-08-30T14:42:34;13.50;;;12.05;;
30307;SDS011;17114;52.314;8.910;2023-08-30T14:45:01;17.48;;;12.75;;
30307;SDS011;17114;52.314;8.910;2023-08-30T14:47:29;15.70;;;13.90;;
30307;SDS011;17114;52.314;8.910;2023-08-30T14:49:57;16.90;;;13.48;;
30307;SDS011;17114;52.314;8.910;2023-08-30T14:52:24;15.90;;;14.18;;
30307;SDS011;17114;52.314;8.910;2023-08-30T14:54:51;18.20;;;15.18;;